Time;durP1;ratioP1;P1;durP2;ratioP2;P2;SDS_P1;SDS_P2;PMS_P1;PMS_P2;Temp;Humidity;BMP_temperature;BMP_pressure;BME280_temperature;BME280_humidity;BME280_pressure;Samples;Min_cycle;Max_cycle;Signal;HPM_P1;HPM_P2
2022/04/13 00:02:06;;;;;;;6.80;5.10;;;14.70;99.90;;;;;;5142039;27;20034;-76
2022/04/13 00:04:32;;;;;;;12.32;5.20;;;14.70;99.90;;;;;;5142656;27;20042;-76
2022/04/13 00:06:57;;;;;;;8.70;5.65;;;14.70;99.90;;;;;;5146591;27;20130;-76
2022/04/13 00:09:24;;;;;;;8.43;5.78;;;14.70;99.90;;;;;;5142556;27;20038;-75
2022/04/13 00:11:51;;;;;;;9.10;4.65;;;14.70;99.90;;;;;;5150209;27;20042;-75
2022/04/13 00:14:18;;;;;;;8.80;4.90;;;14.70;99.90;;;;;;5127675;27;20134;-75
2022/04/13 00:16:43;;;;;;;7.47;5.28;;;14.70;99.90;;;;;;5147219;27;20450;-76
2022/04/13 00:19:09;;;;;;;8.98;5.40;;;14.60;99.90;;;;;;5144467;27;20034;-76
2022/04/13 00:21:35;;;;;;;8.05;5.40;;;14.60;99.90;;;;;;5142711;27;20046;-76
2022/04/13 00:24:00;;;;;;;8.65;5.40;;;14.60;99.90;;;;;;5129809;27;20073;-75
2022/04/13 00:26:26;;;;;;;7.53;5.73;;;14.60;99.90;;;;;;5141594;27;20073;-75
2022/04/13 00:28:52;;;;;;;8.73;5.22;;;14.60;99.90;;;;;;5146079;27;20288;-76
2022/04/13 00:31:18;;;;;;;9.77;5.80;;;14.50;99.90;;;;;;5141574;27;20057;-76
2022/04/13 00:33:44;;;;;;;11.20;6.15;;;14.50;99.90;;;;;;5141319;27;20039;-76
2022/04/13 00:36:09;;;;;;;9.52;5.90;;;14.50;99.90;;;;;;5146215;27;20064;-75
2022/04/13 00:38:35;;;;;;;8.68;5.85;;;14.50;99.90;;;;;;5137289;27;20030;-75
2022/04/13 00:41:00;;;;;;;7.45;5.82;;;14.30;99.90;;;;;;5160383;27;20113;-75
2022/04/13 00:43:26;;;;;;;8.73;5.72;;;14.20;99.90;;;;;;5132320;27;20042;-75
2022/04/13 00:45:52;;;;;;;9.10;5.78;;;14.20;99.90;;;;;;5141990;27;20034;-76
2022/04/13 00:48:34;;;;;;;8.73;6.30;;;14.10;99.90;;;;;;5157613;27;20118;-76
2022/04/13 00:51:00;;;;;;;8.43;5.65;;;14.10;99.90;;;;;;5144024;27;20042;-75
2022/04/13 00:53:26;;;;;;;14.02;6.35;;;13.90;99.90;;;;;;5148004;27;20041;-75
2022/04/13 00:55:57;;;;;;;8.80;5.82;;;13.90;99.90;;;;;;5146033;27;20462;-76
2022/04/13 00:58:26;;;;;;;8.15;5.93;;;13.90;99.90;;;;;;5139808;27;20038;-76
2022/04/13 01:00:53;;;;;;;9.02;6.43;;;13.80;99.90;;;;;;5143819;27;20035;-75
2022/04/13 01:03:21;;;;;;;11.40;6.32;;;13.90;99.90;;;;;;5144096;27;20069;-75
2022/04/13 01:05:48;;;;;;;10.45;6.28;;;13.90;99.90;;;;;;5137002;27;20091;-75
2022/04/13 01:08:15;;;;;;;9.93;6.30;;;13.90;99.90;;;;;;5123030;27;20483;-75
2022/04/13 01:10:44;;;;;;;10.15;6.18;;;13.90;99.90;;;;;;5145389;27;20375;-75
2022/04/13 01:13:11;;;;;;;8.43;6.55;;;13.90;99.90;;;;;;5141709;27;20415;-75
2022/04/13 01:15:36;;;;;;;;;;;14.00;99.90;;;;;;5143446;27;20030;-76
2022/04/13 01:18:03;;;;;;;9.75;6.22;;;13.90;99.90;;;;;;5132632;27;19915;-76
2022/04/13 01:20:29;;;;;;;10.52;5.88;;;13.90;99.90;;;;;;5126337;27;20070;-75
2022/04/13 01:22:55;;;;;;;9.82;7.13;;;13.90;99.90;;;;;;5150518;27;20030;-75
2022/04/13 01:25:21;;;;;;;8.95;6.20;;;13.90;99.90;;;;;;5138373;27;20070;-75
2022/04/13 01:27:47;;;;;;;12.73;6.65;;;13.90;99.90;;;;;;5147822;27;20061;-76
2022/04/13 01:30:13;;;;;;;13.82;7.25;;;13.80;99.90;;;;;;5147850;27;20048;-76
2022/04/13 01:32:39;;;;;;;8.82;6.38;;;13.80;99.90;;;;;;5148187;27;20034;-75
2022/04/13 01:35:06;;;;;;;10.13;6.63;;;13.70;99.90;;;;;;5151686;27;20374;-74
2022/04/13 01:37:32;;;;;;;8.93;6.38;;;13.70;99.90;;;;;;5155382;27;20069;-75
2022/04/13 01:39:58;;;;;;;9.35;7.22;;;13.70;99.90;;;;;;5124971;27;20072;-75
2022/04/13 01:42:24;;;;;;;13.20;7.22;;;13.70;99.90;;;;;;5129982;27;20117;-75
2022/04/13 01:44:50;;;;;;;9.55;6.72;;;13.70;99.90;;;;;;5125546;27;20050;-76
2022/04/13 01:47:16;;;;;;;12.38;6.93;;;13.70;99.90;;;;;;5150462;27;20482;-76
2022/04/13 01:49:43;;;;;;;9.23;7.03;;;13.60;99.90;;;;;;5155211;27;20034;-76
2022/04/13 01:52:10;;;;;;;9.63;7.00;;;13.60;99.90;;;;;;5145306;27;20465;-76
2022/04/13 01:54:36;;;;;;;10.65;7.45;;;13.70;99.90;;;;;;5144950;27;20035;-76
2022/04/13 01:57:03;;;;;;;14.18;7.78;;;13.60;99.90;;;;;;5152265;27;20038;-76
2022/04/13 01:59:29;;;;;;;10.95;7.30;;;13.70;99.90;;;;;;5137850;27;20048;-76
2022/04/13 02:01:55;;;;;;;11.43;7.50;;;13.60;99.90;;;;;;5146703;27;20042;-76
2022/04/13 02:04:23;;;;;;;14.38;7.70;;;13.50;99.90;;;;;;5141640;27;20098;-75
2022/04/13 02:06:49;;;;;;;9.57;7.38;;;13.50;99.90;;;;;;5149146;27;20489;-76
2022/04/13 02:09:17;;;;;;;12.30;7.90;;;13.50;99.90;;;;;;5148151;27;20046;-75
2022/04/13 02:11:43;;;;;;;12.35;6.95;;;13.50;99.90;;;;;;5146671;27;20118;-76
2022/04/13 02:14:09;;;;;;;;;;;13.50;99.90;;;;;;5142339;27;20026;-75
2022/04/13 02:16:35;;;;;;;13.07;7.70;;;13.50;99.90;;;;;;5146067;27;20259;-75
2022/04/13 02:19:02;;;;;;;10.27;7.70;;;13.50;99.90;;;;;;5167941;27;20470;-75
2022/04/13 02:21:28;;;;;;;13.82;8.20;;;13.50;99.90;;;;;;5141812;27;20062;-75
2022/04/13 02:23:53;;;;;;;13.20;8.35;;;13.50;99.90;;;;;;5146695;27;20050;-76
2022/04/13 02:26:19;;;;;;;11.00;7.93;;;13.40;99.90;;;;;;5147121;27;20054;-76
2022/04/13 02:28:46;;;;;;;13.63;8.02;;;13.40;99.90;;;;;;5130846;27;20307;-76
2022/04/13 02:31:12;;;;;;;13.60;8.93;;;13.40;99.90;;;;;;5124110;27;20515;-76
2022/04/13 02:33:38;;;;;;;13.27;7.93;;;13.40;99.90;;;;;;5151494;27;20039;-76
2022/04/13 02:36:05;;;;;;;13.88;8.25;;;13.40;99.90;;;;;;5138389;27;20042;-75
2022/04/13 02:38:31;;;;;;;12.88;8.32;;;13.30;99.90;;;;;;5146146;27;20043;-75
2022/04/13 02:40:57;;;;;;;12.15;8.50;;;13.40;99.90;;;;;;5148333;27;20406;-76
2022/04/13 02:43:24;;;;;;;13.10;9.35;;;13.30;99.90;;;;;;5127933;27;20126;-76
2022/04/13 02:45:50;;;;;;;12.30;8.77;;;13.20;99.90;;;;;;5143606;27;20398;-76
2022/04/13 02:48:16;;;;;;;11.18;8.43;;;13.10;99.90;;;;;;5146644;27;20458;-76
2022/04/13 02:50:42;;;;;;;18.92;9.57;;;13.10;99.90;;;;;;5145881;27;20038;-75
2022/04/13 02:53:07;;;;;;;11.80;8.13;;;13.00;99.90;;;;;;5085536;27;20538;-75
2022/04/13 02:55:33;;;;;;;12.70;8.52;;;13.00;99.90;;;;;;5146250;27;20077;-76
2022/04/13 02:57:59;;;;;;;11.30;8.40;;;13.00;99.90;;;;;;5143806;27;20037;-75
2022/04/13 03:00:25;;;;;;;13.90;8.67;;;12.90;99.90;;;;;;5140595;27;20447;-75
2022/04/13 03:02:50;;;;;;;12.63;8.73;;;12.90;99.90;;;;;;5148579;27;20762;-75
2022/04/13 03:05:16;;;;;;;13.30;8.57;;;12.80;99.90;;;;;;5142509;27;20074;-75
2022/04/13 03:07:42;;;;;;;13.68;8.68;;;12.80;99.90;;;;;;5150382;27;20033;-75
2022/04/13 03:10:08;;;;;;;11.38;8.30;;;12.70;99.90;;;;;;5140737;27;20038;-75
2022/04/13 03:12:34;;;;;;;12.52;8.82;;;12.70;99.90;;;;;;5147933;27;20034;-76
2022/04/13 03:15:02;;;;;;;13.32;8.93;;;12.60;99.90;;;;;;5123961;27;20125;-75
2022/04/13 03:17:28;;;;;;;12.80;9.32;;;12.60;99.90;;;;;;5143534;27;20046;-76
2022/04/13 03:19:54;;;;;;;16.25;9.65;;;12.50;99.90;;;;;;5151064;27;20030;-75
2022/04/13 03:22:23;;;;;;;;;;;12.60;99.90;;;;;;5141315;27;20391;-75
2022/04/13 03:24:50;;;;;;;16.08;9.18;;;12.50;99.90;;;;;;5140109;27;19915;-74
2022/04/13 03:27:17;;;;;;;14.20;9.55;;;12.50;99.90;;;;;;5148456;27;20046;-75
2022/04/13 03:29:42;;;;;;;14.32;9.32;;;12.50;99.90;;;;;;5145059;27;20042;-75
2022/04/13 03:32:08;;;;;;;16.65;9.75;;;12.50;99.90;;;;;;5143436;27;20410;-76
2022/04/13 03:34:34;;;;;;;14.15;9.23;;;12.40;99.90;;;;;;5147638;27;20109;-75
2022/04/13 03:37:00;;;;;;;17.98;10.00;;;12.40;99.90;;;;;;5144642;27;20523;-76
2022/04/13 03:39:26;;;;;;;15.53;9.43;;;12.40;99.90;;;;;;5145095;27;20064;-76
2022/04/13 03:41:53;;;;;;;;;;;12.30;99.90;;;;;;5127897;27;20272;-76
2022/04/13 03:44:19;;;;;;;14.25;9.75;;;12.30;99.90;;;;;;5144134;27;19915;-75
2022/04/13 03:46:45;;;;;;;17.70;9.93;;;12.30;99.90;;;;;;5143002;27;20121;-75
2022/04/13 03:49:11;;;;;;;17.23;10.43;;;12.30;99.90;;;;;;5147173;27;20121;-75
2022/04/13 03:51:36;;;;;;;16.67;10.73;;;12.40;99.90;;;;;;5147293;27;20122;-76
2022/04/13 03:54:03;;;;;;;17.33;11.20;;;12.40;99.90;;;;;;5144151;27;20130;-76
2022/04/13 03:56:29;;;;;;;18.83;10.98;;;12.40;99.90;;;;;;5139712;27;20759;-76
2022/04/13 03:58:57;;;;;;;18.58;11.30;;;12.40;99.90;;;;;;5165367;27;20113;-76
2022/04/13 04:01:23;;;;;;;18.73;11.13;;;12.40;99.90;;;;;;5136978;27;20042;-76
2022/04/13 04:03:54;;;;;;;18.20;11.25;;;12.40;99.90;;;;;;5141964;27;20036;-76
2022/04/13 04:06:20;;;;;;;20.20;11.18;;;12.50;99.90;;;;;;5144682;27;20484;-76
2022/04/13 04:08:46;;;;;;;19.95;11.52;;;12.50;99.90;;;;;;5145942;27;20121;-76
2022/04/13 04:11:12;;;;;;;19.25;11.68;;;12.50;99.90;;;;;;5150151;27;20524;-76
2022/04/13 04:13:38;;;;;;;18.98;11.13;;;12.50;99.90;;;;;;5142914;27;20039;-76
2022/04/13 04:16:04;;;;;;;16.85;11.30;;;12.50;99.90;;;;;;5149278;27;20366;-76
2022/04/13 04:18:30;;;;;;;16.63;10.90;;;12.50;99.90;;;;;;5106081;27;20038;-78
2022/04/13 04:20:56;;;;;;;16.23;11.60;;;12.50;99.90;;;;;;5146552;27;20113;-77
2022/04/13 04:23:22;;;;;;;19.55;11.18;;;12.60;99.90;;;;;;5144381;27;20170;-76
2022/04/13 04:25:48;;;;;;;19.25;11.95;;;12.60;99.90;;;;;;5142253;27;20042;-76
2022/04/13 04:28:13;;;;;;;17.23;12.20;;;12.60;99.90;;;;;;5136487;27;20047;-76
2022/04/13 04:30:40;;;;;;;21.30;12.30;;;12.60;99.90;;;;;;5144002;27;20050;-76
2022/04/13 04:33:06;;;;;;;19.02;12.20;;;12.60;99.90;;;;;;5143912;27;20042;-77
2022/04/13 04:35:33;;;;;;;23.63;12.32;;;12.60;99.90;;;;;;5144290;27;20490;-76
2022/04/13 04:38:02;;;;;;;21.83;12.80;;;12.60;99.90;;;;;;5143594;27;20066;-76
2022/04/13 04:40:28;;;;;;;20.83;12.85;;;12.60;99.90;;;;;;5152495;27;20030;-76
2022/04/13 04:42:55;;;;;;;22.95;12.80;;;12.50;99.90;;;;;;5142219;27;20039;-76
2022/04/13 04:45:21;;;;;;;20.23;12.57;;;12.50;99.90;;;;;;5146950;27;20529;-76
2022/04/13 04:47:49;;;;;;;20.35;13.60;;;12.40;99.90;;;;;;5133718;27;20035;-77
2022/04/13 04:50:15;;;;;;;19.52;13.02;;;12.50;99.90;;;;;;5142463;27;20062;-76
2022/04/13 04:52:41;;;;;;;;;;;12.50;99.90;;;;;;5142574;27;20466;-76
2022/04/13 04:55:09;;;;;;;21.70;12.88;;;12.40;99.90;;;;;;5138715;27;19919;-76
2022/04/13 04:57:35;;;;;;;20.50;12.52;;;12.40;99.90;;;;;;5142849;27;20039;-76
2022/04/13 05:00:00;;;;;;;19.55;12.35;;;12.40;99.90;;;;;;5137778;27;20367;-77
2022/04/13 05:02:26;;;;;;;20.15;12.57;;;12.40;99.90;;;;;;5145598;27;20030;-77
2022/04/13 05:04:52;;;;;;;21.92;12.90;;;12.40;99.90;;;;;;5128591;27;20049;-77
2022/04/13 05:07:17;;;;;;;20.60;12.47;;;12.40;99.90;;;;;;5115569;27;20043;-77
2022/04/13 05:09:43;;;;;;;19.27;12.70;;;12.40;99.90;;;;;;5112733;27;20042;-77
2022/04/13 05:12:09;;;;;;;21.77;12.63;;;12.50;99.90;;;;;;5146444;27;20043;-77
2022/04/13 05:14:34;;;;;;;20.95;12.30;;;12.50;99.90;;;;;;5158657;27;20030;-77
2022/04/13 05:17:01;;;;;;;18.90;11.97;;;12.50;99.90;;;;;;5149918;27;20041;-77
2022/04/13 05:19:27;;;;;;;22.60;13.20;;;12.50;99.90;;;;;;5132558;27;20038;-76
2022/04/13 05:21:53;;;;;;;21.15;12.13;;;12.50;99.90;;;;;;5132663;27;20053;-77
2022/04/13 05:24:19;;;;;;;24.00;12.43;;;12.60;99.90;;;;;;5147494;27;20490;-76
2022/04/13 05:26:45;;;;;;;25.15;12.52;;;12.60;99.90;;;;;;5143810;27;20125;-76
2022/04/13 05:29:10;;;;;;;23.50;12.80;;;12.60;99.90;;;;;;5141766;27;20075;-76
2022/04/13 05:31:36;;;;;;;19.88;12.82;;;12.70;99.90;;;;;;5126701;28;20269;-78
2022/04/13 05:34:02;;;;;;;22.98;12.90;;;12.60;99.90;;;;;;5125705;28;20493;-75
2022/04/13 05:36:28;;;;;;;21.38;12.48;;;12.60;99.90;;;;;;5118385;28;20042;-76
2022/04/13 05:38:53;;;;;;;19.80;13.15;;;12.50;99.90;;;;;;5120168;28;20095;-76
2022/04/13 05:41:19;;;;;;;19.52;12.70;;;12.50;99.90;;;;;;5128706;28;20122;-76
2022/04/13 05:43:45;;;;;;;22.15;13.65;;;12.50;99.90;;;;;;5111911;28;20048;-76
2022/04/13 05:46:10;;;;;;;22.93;13.60;;;12.50;99.90;;;;;;5120253;28;20071;-76
2022/04/13 05:48:36;;;;;;;21.98;13.27;;;12.50;99.90;;;;;;5108353;28;20092;-78
2022/04/13 05:51:02;;;;;;;21.05;13.25;;;12.40;99.90;;;;;;5125140;28;20050;-77
2022/04/13 05:53:27;;;;;;;20.73;12.77;;;12.50;99.90;;;;;;5128908;28;20491;-77
2022/04/13 05:55:56;;;;;;;24.30;14.03;;;12.50;99.90;;;;;;5129047;28;20278;-76
2022/04/13 05:58:25;;;;;;;23.85;14.07;;;12.40;99.90;;;;;;5111249;28;20273;-77
2022/04/13 06:00:52;;;;;;;22.58;12.73;;;12.40;99.90;;;;;;5113374;28;20040;-76
2022/04/13 06:03:18;;;;;;;21.77;13.43;;;12.50;99.90;;;;;;5090793;28;20048;-76
2022/04/13 06:05:47;;;;;;;29.08;14.07;;;12.60;99.90;;;;;;5123214;27;20401;-76
2022/04/13 06:08:13;;;;;;;22.88;14.35;;;12.60;99.90;;;;;;5127716;27;20118;-75
2022/04/13 06:10:39;;;;;;;22.02;13.40;;;12.80;99.90;;;;;;5132326;27;20601;-77
2022/04/13 06:13:05;;;;;;;29.08;14.35;;;12.90;99.90;;;;;;5127059;27;20032;-76
2022/04/13 06:15:31;;;;;;;22.55;14.45;;;13.00;99.90;;;;;;5116512;27;20050;-75
2022/04/13 06:17:57;;;;;;;;;;;13.20;99.90;;;;;;5130679;27;20563;-75
2022/04/13 06:20:23;;;;;;;23.73;14.18;;;13.30;99.90;;;;;;5110759;28;20002;-76
2022/04/13 06:22:49;;;;;;;24.48;14.40;;;13.30;99.90;;;;;;5111154;28;20168;-76
2022/04/13 06:25:15;;;;;;;25.40;14.70;;;13.30;99.90;;;;;;5102825;28;20463;-76
2022/04/13 06:27:41;;;;;;;22.05;14.60;;;13.40;99.90;;;;;;5110948;28;20040;-76
2022/04/13 06:30:08;;;;;;;23.13;13.98;;;13.30;99.90;;;;;;5110306;28;20495;-75
2022/04/13 06:32:36;;;;;;;27.52;14.88;;;13.40;99.90;;;;;;5144567;27;20083;-76
2022/04/13 06:35:03;;;;;;;23.70;14.52;;;13.40;99.90;;;;;;5110889;28;20035;-76
2022/04/13 06:37:29;;;;;;;24.08;13.82;;;13.50;99.90;;;;;;5111241;28;20093;-76
2022/04/13 06:39:54;;;;;;;22.88;14.02;;;13.40;99.90;;;;;;5111099;28;20035;-76
2022/04/13 06:42:23;;;;;;;22.60;13.80;;;13.50;99.90;;;;;;5110812;28;20043;-76
2022/04/13 06:44:52;;;;;;;24.05;14.15;;;13.60;99.90;;;;;;5110992;28;20093;-77
2022/04/13 06:47:21;;;;;;;25.00;13.93;;;13.70;99.90;;;;;;5110451;28;20132;-76
2022/04/13 06:49:47;;;;;;;23.75;14.75;;;13.80;99.90;;;;;;5110861;28;20071;-77
2022/04/13 06:52:13;;;;;;;23.88;13.85;;;14.10;99.90;;;;;;5110599;28;20086;-76
2022/04/13 06:54:40;;;;;;;26.98;13.77;;;14.30;99.90;;;;;;5110718;28;20088;-79
2022/04/13 06:57:06;;;;;;;18.17;13.82;;;14.60;99.90;;;;;;5110917;28;20475;-78
2022/04/13 06:59:32;;;;;;;22.55;13.30;;;14.80;99.90;;;;;;5111008;28;20039;-78
2022/04/13 07:01:57;;;;;;;26.95;13.43;;;14.90;99.90;;;;;;5111267;28;20472;-78
2022/04/13 07:04:23;;;;;;;23.10;13.27;;;14.80;99.90;;;;;;5110755;28;20079;-78
2022/04/13 07:06:49;;;;;;;23.05;14.05;;;14.90;99.90;;;;;;5110921;28;20074;-77
2022/04/13 07:09:15;;;;;;;22.92;13.20;;;14.90;99.90;;;;;;5110515;28;20085;-77
2022/04/13 07:11:41;;;;;;;22.98;13.05;;;14.80;99.90;;;;;;5110642;28;20035;-77
2022/04/13 07:14:07;;;;;;;19.73;12.27;;;14.80;99.90;;;;;;5093488;28;20049;-77
2022/04/13 07:16:33;;;;;;;22.60;13.13;;;14.80;99.90;;;;;;5109127;28;20043;-76
2022/04/13 07:18:59;;;;;;;26.35;11.82;;;15.00;99.90;;;;;;5094003;28;20104;-76
2022/04/13 07:21:24;;;;;;;21.15;13.20;;;15.60;99.90;;;;;;5110581;28;20062;-76
2022/04/13 07:23:50;;;;;;;20.77;12.60;;;16.10;99.90;;;;;;5111153;28;20039;-77
2022/04/13 07:26:16;;;;;;;18.55;12.25;;;16.60;99.90;;;;;;5110244;28;20047;-76
2022/04/13 07:28:43;;;;;;;20.73;11.40;;;17.00;99.90;;;;;;5109956;27;20478;-77
2022/04/13 07:31:08;;;;;;;20.23;11.63;;;17.30;99.90;;;;;;5154350;27;20038;-77
2022/04/13 07:33:34;;;;;;;17.15;10.43;;;17.40;99.90;;;;;;5138060;27;20041;-76
2022/04/13 07:36:00;;;;;;;20.75;10.90;;;17.80;99.90;;;;;;5137500;27;20030;-76
2022/04/13 07:38:25;;;;;;;18.35;9.60;;;18.00;99.90;;;;;;5133604;27;20076;-76
2022/04/13 07:40:51;;;;;;;14.40;9.50;;;17.90;99.90;;;;;;5134447;27;20122;-76
2022/04/13 07:43:17;;;;;;;14.00;9.27;;;17.80;99.90;;;;;;5167619;27;20052;-75
2022/04/13 07:45:43;;;;;;;18.52;9.80;;;17.80;99.90;;;;;;5155307;27;20045;-76
2022/04/13 07:48:09;;;;;;;14.65;9.50;;;17.40;99.90;;;;;;5154366;27;20034;-76
2022/04/13 07:50:35;;;;;;;18.23;9.82;;;17.30;99.90;;;;;;5137359;27;20121;-76
2022/04/13 07:53:01;;;;;;;13.18;9.43;;;16.90;99.90;;;;;;5155092;27;20133;-76
2022/04/13 07:55:27;;;;;;;15.27;10.13;;;16.80;99.90;;;;;;5154366;27;20090;-76
2022/04/13 07:57:53;;;;;;;15.43;9.95;;;16.30;99.90;;;;;;5154467;27;20034;-75
2022/04/13 08:00:19;;;;;;;15.05;8.98;;;16.20;99.90;;;;;;5154270;27;20461;-75
2022/04/13 08:02:44;;;;;;;16.92;9.63;;;16.10;99.90;;;;;;5154410;27;20037;-76
2022/04/13 08:05:15;;;;;;;13.00;9.20;;;16.10;99.90;;;;;;5154313;27;20065;-76
2022/04/13 08:07:42;;;;;;;15.15;9.25;;;16.10;99.90;;;;;;5154713;27;20042;-76
2022/04/13 08:10:08;;;;;;;16.77;10.05;;;16.20;99.90;;;;;;5154004;27;20389;-76
2022/04/13 08:12:34;;;;;;;17.80;9.93;;;16.30;99.90;;;;;;5154528;27;20053;-77
2022/04/13 08:15:02;;;;;;;17.27;10.10;;;16.40;99.90;;;;;;5137401;27;20026;-77
2022/04/13 08:17:28;;;;;;;16.33;9.88;;;16.40;99.90;;;;;;5153927;27;20038;-76
2022/04/13 08:19:54;;;;;;;13.63;9.90;;;16.50;99.90;;;;;;5154213;27;20126;-77
2022/04/13 08:22:27;;;;;;;15.90;9.45;;;16.40;99.90;;;;;;5136683;27;20045;-77
2022/04/13 08:24:53;;;;;;;15.70;11.02;;;16.50;99.90;;;;;;5137165;27;20486;-77
2022/04/13 08:27:19;;;;;;;13.27;10.18;;;16.70;99.90;;;;;;5135583;27;20037;-77
2022/04/13 08:29:48;;;;;;;14.63;9.13;;;16.90;99.90;;;;;;5136631;27;20133;-78
2022/04/13 08:32:21;;;;;;;17.42;9.95;;;17.10;99.90;;;;;;5136341;27;20125;-76
2022/04/13 08:34:49;;;;;;;17.50;9.23;;;17.10;99.90;;;;;;5154263;27;20030;-77
2022/04/13 08:37:14;;;;;;;16.08;9.85;;;17.10;99.90;;;;;;5153754;27;20448;-76
2022/04/13 08:39:41;;;;;;;15.07;9.70;;;17.20;99.90;;;;;;5136683;27;20129;-76
2022/04/13 08:42:34;;;;;;;16.02;9.10;;;17.50;99.90;;;;;;5153944;27;20074;-76
2022/04/13 08:45:23;;;;;;;17.23;9.55;;;18.10;99.90;;;;;;5140683;27;20565;-77
2022/04/13 08:47:56;;;;;;;13.75;9.35;;;18.70;99.90;;;;;;5150753;27;20038;-77
2022/04/13 08:50:26;;;;;;;12.90;8.52;;;19.20;99.90;;;;;;5137620;27;20035;-77
2022/04/13 08:52:56;;;;;;;14.05;8.05;;;19.60;99.90;;;;;;5133479;27;20031;-76
2022/04/13 08:55:23;;;;;;;14.75;8.07;;;20.00;99.90;;;;;;5132980;27;20122;-77
2022/04/13 08:57:53;;;;;;;14.13;7.88;;;20.30;99.90;;;;;;5133228;27;20035;-78
2022/04/13 09:00:21;;;;;;;14.20;7.95;;;20.50;99.90;;;;;;5132927;27;20053;-77
2022/04/13 09:02:50;;;;;;;12.27;6.78;;;20.80;99.90;;;;;;5132946;27;20081;-76
2022/04/13 09:05:18;;;;;;;11.00;6.38;;;21.10;99.90;;;;;;5132519;27;20070;-76
2022/04/13 09:07:48;;;;;;;10.30;6.65;;;21.10;99.90;;;;;;5133060;27;20129;-76
2022/04/13 09:10:23;;;;;;;12.50;7.55;;;21.10;99.90;;;;;;5132048;27;20042;-77
2022/04/13 09:12:50;;;;;;;12.20;7.95;;;20.90;99.90;;;;;;5132931;27;20042;-77
2022/04/13 09:15:16;;;;;;;10.55;6.40;;;20.70;99.90;;;;;;5132575;27;20078;-76
2022/04/13 09:17:42;;;;;;;8.98;6.45;;;20.50;99.90;;;;;;5137596;27;20038;-76
2022/04/13 09:20:09;;;;;;;11.63;7.82;;;20.60;99.90;;;;;;5153572;27;20102;-76
2022/04/13 09:22:36;;;;;;;10.60;6.80;;;20.90;99.90;;;;;;5153588;27;20049;-77
2022/04/13 09:25:04;;;;;;;10.07;7.03;;;21.40;99.90;;;;;;5153559;27;20065;-77
2022/04/13 09:27:31;;;;;;;14.55;7.78;;;21.70;99.90;;;;;;5153074;27;20049;-76
2022/04/13 09:29:57;;;;;;;10.63;6.13;;;22.10;99.90;;;;;;5153288;27;20505;-78
2022/04/13 09:32:23;;;;;;;12.77;5.93;;;22.40;99.90;;;;;;5153026;27;20094;-77
2022/04/13 09:34:51;;;;;;;9.45;5.70;;;22.80;99.90;;;;;;5153871;27;20482;-77
2022/04/13 09:37:18;;;;;;;12.13;6.90;;;23.10;99.90;;;;;;5153223;27;20076;-77
2022/04/13 09:39:45;;;;;;;14.30;7.57;;;23.20;99.90;;;;;;5156683;27;20046;-78
2022/04/13 09:42:13;;;;;;;10.85;6.70;;;23.40;99.90;;;;;;5143875;27;20034;-78
2022/04/13 09:44:42;;;;;;;11.02;5.90;;;23.70;99.90;;;;;;5136454;27;20035;-78
2022/04/13 09:47:10;;;;;;;11.20;6.18;;;23.60;99.90;;;;;;5136537;27;20081;-78
2022/04/13 09:49:50;;;;;;;8.88;5.50;;;24.00;99.90;;;;;;5136146;27;20054;-78
2022/04/13 09:52:16;;;;;;;7.38;5.18;;;24.00;99.90;;;;;;5118801;27;20064;-78
2022/04/13 09:54:46;;;;;;;;;;;24.20;99.90;;;;;;5136944;27;20038;-78
2022/04/13 09:57:25;;;;;;;6.28;4.95;;;24.30;99.90;;;;;;5136461;27;19919;-77
2022/04/13 10:00:01;;;;;;;8.85;5.60;;;24.40;99.90;;;;;;5136384;27;20554;-77
2022/04/13 10:02:38;;;;;;;6.82;4.65;;;24.80;99.90;;;;;;5119255;27;20108;-77
2022/04/13 10:05:10;;;;;;;6.97;4.18;;;24.70;99.90;;;;;;5154651;27;20035;-76
2022/04/13 10:07:36;;;;;;;8.40;4.47;;;24.70;99.90;;;;;;5135795;27;20041;-76
2022/04/13 10:10:03;;;;;;;7.90;5.18;;;25.00;99.90;;;;;;5136208;27;20035;-77
2022/04/13 10:12:28;;;;;;;10.10;5.18;;;25.20;99.70;;;;;;5135970;27;20498;-77
2022/04/13 10:15:07;;;;;;;10.20;5.20;;;25.10;99.80;;;;;;5138658;27;20118;-77
2022/04/13 10:17:33;;;;;;;11.27;5.45;;;25.30;98.90;;;;;;5148760;27;20046;-77
2022/04/13 10:19:59;;;;;;;7.85;4.80;;;25.30;98.10;;;;;;5136332;27;20445;-76
2022/04/13 10:22:25;;;;;;;6.88;3.75;;;25.40;98.30;;;;;;5135471;27;20117;-77
2022/04/13 10:24:51;;;;;;;9.35;4.50;;;25.40;98.00;;;;;;5135862;27;20038;-77
2022/04/13 10:27:18;;;;;;;;;;;25.20;97.40;;;;;;5136108;27;20038;-78
2022/04/13 10:29:46;;;;;;;6.80;3.88;;;24.80;97.20;;;;;;5118572;27;19919;-77
2022/04/13 10:32:25;;;;;;;8.43;4.13;;;24.50;97.20;;;;;;5135108;27;20061;-76
2022/04/13 10:34:54;;;;;;;4.85;3.20;;;24.30;97.30;;;;;;5118879;27;20500;-77
2022/04/13 10:37:22;;;;;;;6.53;3.53;;;24.30;97.80;;;;;;5135336;27;20071;-76
2022/04/13 10:39:52;;;;;;;7.57;3.60;;;24.30;97.70;;;;;;5135596;27;20066;-75
2022/04/13 10:42:19;;;;;;;8.50;3.67;;;24.60;97.70;;;;;;5134888;27;20053;-75
2022/04/13 10:45:03;;;;;;;5.75;2.28;;;24.70;96.80;;;;;;5135103;27;20043;-76
2022/04/13 10:48:03;;;;;;;5.70;2.58;;;24.80;96.60;;;;;;5142727;27;20489;-76
2022/04/13 10:50:47;;;;;;;7.00;3.15;;;24.50;96.10;;;;;;5154545;27;20030;-76
2022/04/13 10:53:24;;;;;;;6.70;3.08;;;24.20;97.00;;;;;;5155751;27;20034;-76
2022/04/13 10:56:02;;;;;;;5.28;2.45;;;23.80;97.10;;;;;;5151354;27;20117;-76
2022/04/13 10:58:59;;;;;;;6.05;2.45;;;23.80;96.70;;;;;;5155595;27;20464;-73
2022/04/13 11:01:36;;;;;;;4.10;2.20;;;24.30;95.90;;;;;;5155371;27;20954;-74
2022/04/13 11:04:04;;;;;;;5.00;3.13;;;24.50;95.90;;;;;;5142430;27;20401;-74
2022/04/13 11:06:31;;;;;;;5.28;3.00;;;24.50;96.20;;;;;;5134350;27;20038;-75
2022/04/13 11:09:10;;;;;;;6.13;2.38;;;24.80;96.30;;;;;;5117602;27;20427;-75
2022/04/13 11:11:37;;;;;;;5.88;2.75;;;25.30;94.50;;;;;;5118963;27;20043;-77
2022/04/13 11:14:20;;;;;;;6.22;2.40;;;25.00;94.60;;;;;;5121282;27;20520;-77
2022/04/13 11:16:46;;;;;;;5.85;2.60;;;24.60;95.50;;;;;;5155245;27;20037;-80
2022/04/13 11:19:11;;;;;;;;;;;24.30;95.40;;;;;;5138680;27;20033;-80
2022/04/13 11:21:55;;;;;;;4.97;2.40;;;23.90;95.50;;;;;;5154916;27;19919;-79
2022/04/13 11:24:33;;;;;;;5.15;2.67;;;23.50;95.60;;;;;;5137218;27;20038;-81
2022/04/13 11:26:59;;;;;;;6.63;3.00;;;23.20;96.40;;;;;;5154666;27;20042;-79
2022/04/13 11:29:33;;;;;;;8.40;4.07;;;23.20;97.30;;;;;;5137096;27;20363;-79
2022/04/13 11:32:02;;;;;;;7.55;3.25;;;22.90;98.30;;;;;;5154804;27;20081;-79
2022/04/13 11:34:27;;;;;;;6.63;3.60;;;22.70;98.30;;;;;;5132215;27;20371;-80
2022/04/13 11:36:58;;;;;;;7.60;3.83;;;22.60;97.90;;;;;;5154523;27;20046;-79
2022/04/13 11:40:06;;;;;;;8.82;3.45;;;22.30;98.00;;;;;;5154579;27;20478;-79
2022/04/13 11:42:35;;;;;;;6.18;3.70;;;22.30;98.60;;;;;;5140872;27;20370;-78
2022/04/13 11:45:12;;;;;;;8.70;4.57;;;22.10;99.20;;;;;;5137085;27;20074;-78
2022/04/13 11:47:52;;;;;;;7.85;4.72;;;21.80;99.90;;;;;;5140716;27;20030;-78
2022/04/13 11:50:19;;;;;;;7.53;4.20;;;21.40;99.90;;;;;;5131262;27;20197;-78
2022/04/13 11:53:19;;;;;;;8.35;3.70;;;20.80;99.90;;;;;;5119980;27;20071;-78
2022/04/13 11:55:46;;;;;;;7.50;2.83;;;20.70;99.90;;;;;;5092890;27;20712;-79
2022/04/13 11:58:13;;;;;;;5.22;2.67;;;20.50;99.90;;;;;;5137077;27;20549;-79
2022/04/13 12:01:11;;;;;;;7.15;3.42;;;20.50;99.90;;;;;;5136799;27;20123;-79
2022/04/13 12:03:41;;;;;;;9.88;4.25;;;20.40;99.90;;;;;;5154177;27;20443;-79
2022/04/13 12:06:16;;;;;;;7.78;4.57;;;20.20;99.90;;;;;;5153979;27;20034;-79
2022/04/13 12:08:52;;;;;;;10.68;3.88;;;20.10;99.90;;;;;;5154109;27;20088;-77
2022/04/13 12:11:39;;;;;;;6.05;3.22;;;20.10;99.90;;;;;;5137038;27;20073;-77
2022/04/13 12:14:05;;;;;;;;;;;20.10;99.90;;;;;;5153522;27;20047;-78
2022/04/13 12:16:38;;;;;;;7.15;3.42;;;20.20;99.90;;;;;;5172224;27;20330;-78
2022/04/13 12:19:09;;;;;;;12.07;3.72;;;20.30;99.90;;;;;;5154317;27;20038;-77
2022/04/13 12:21:40;;;;;;;8.48;3.10;;;20.50;99.90;;;;;;5153231;27;20038;-77
2022/04/13 12:24:07;;;;;;;7.47;3.53;;;20.50;99.90;;;;;;5153985;27;20032;-77
2022/04/13 12:26:41;;;;;;;8.48;3.50;;;20.50;99.90;;;;;;5136187;27;20116;-78
2022/04/13 12:29:12;;;;;;;8.07;3.08;;;20.50;99.90;;;;;;5153148;27;20030;-78
2022/04/13 12:31:48;;;;;;;7.47;3.38;;;20.60;99.90;;;;;;5153297;27;20046;-78
2022/04/13 12:34:23;;;;;;;9.55;3.55;;;20.30;99.90;;;;;;5153730;27;20442;-79
2022/04/13 12:36:56;;;;;;;9.23;3.40;;;20.10;99.90;;;;;;5133117;27;20069;-78
2022/04/13 12:39:25;;;;;;;10.50;3.33;;;19.80;99.90;;;;;;5128213;27;20461;-77
2022/04/13 12:41:51;;;;;;;9.00;2.90;;;19.80;99.90;;;;;;5136824;27;20521;-78
2022/04/13 12:44:18;;;;;;;6.88;2.85;;;19.50;99.90;;;;;;5153532;27;20129;-78
2022/04/13 12:46:44;;;;;;;6.95;3.00;;;19.30;99.90;;;;;;5153220;27;20049;-78